Soaring Guidance
Issued by NWS Reno, NV

Current Version | Previous Version | Text Only | Print | Product List | Glossary On
Versions: 1 2 3 4 5 6 7 8 9 10 11 12 13 14 15 16
096
UXUS97 KREV 251656 CCA
SRGREV

SOARING FORECAST
NATIONAL WEATHER SERVICE - RENO NV
700 AM PDT WED MAY 25 2016

THIS SOARING FORECAST IS FOR THE EASTERN SIERRA AND WESTERN NEVADA
WITH SPECIFIC INDICES FOR THE GREATER RENO AREA.

THIS FORECAST IS PREPARED DAILY BY 700 AM AND IS NOT UPDATED.

FOR CURRENT FLIGHT CONDITIONS...FORECASTS...AND ADVISORIES...ACCESS
YOUR LOCAL BRIEFING OUTLET OR FLIGHT SERVICE STATION.

*******************************************************************
FORECASTED LOCAL INDICES FOR RENO:        TODAY     YESTERDAY
FORECASTED MAX TEMP AT RENO (DEG F).....     68          64
FORECASTED TRIGGER TEMPERATURE (DEG F)..     53          53
   EXCEEDED YESTERDAY BY 855 AM PDT
FORECASTED MAXIMUM ALTITUDE (FT MSL)....  16000           M
FORECASTED SOARING INDEX (FPM)..........    930           M
FORECASTED K-INDEX.........VALID 18Z....     29           M
FORECASTED K-INDEX.........VALID 00Z....     31           M
FORECASTED LIFTED INDEX....VALID 18Z....      0           M
FORECASTED LIFTED INDEX....VALID 00Z....     -1           M

AFTERNOON WINDS ALOFT FORECAST
MSL (FT) WIND/TEMP
9000  3215/+04
10000 3214/+01
12000 3313/-04
14000 3213/-08
16000 3213/-12
18000 3214/-17
24000 3415/-30
30000 0132/-44
34000 0135/-50
39000 3622/-58

SLIDE MOUNTAIN DATA:
     DATE       TIME     TEMP  DEWPT   RH         WIND (MPH)
                        (F)   (F)           | DIR  SPEED GUST
2016-05-25    09:00      33    32     98    | 046    1    3
2016-05-25    08:50      33    33     98    | 033    1    4
2016-05-25    08:30      33    33     98    | 000    0    0
2016-05-25    08:20      32    31     99    | 029    2    5

RENO TAF FORECAST:
KRNO 251120Z 2512/2612 32006KT P6SM BKN070
     FM251800 32006KT P6SM VCSH SCT050 BKN080
     FM252200 31012G20KT P6SM VCTS BKN050CB OVC080
     FM260200 31010KT P6SM VCSH BKN050 BKN080
     FM260600 VRB03KT P6SM SCT050 BKN080

CARSON CITY TAF FORECAST:
KCXP 251120Z 2512/2612 VRB03KT P6SM BKN060
     FM251800 VRB03KT P6SM VCSH BKN050 BKN070
     FM252200 32008KT P6SM VCTS BKN050CB OVC070
     FM260200 30010KT P6SM VCSH BKN050 BKN080
     FM260500 VRB03KT P6SM SCT050 BKN080

OUTLOOK FOR THE RENO-CARSON CITY-MINDEN AREA:
.THURSDAY...PARTLY CLOUDY. SLIGHT CHANCE OF SHOWERS AND
THUNDERSTORMS IN THE AFTERNOON. HIGHS 69 TO 74. NORTHWEST WINDS
UP TO 10 MPH.

SUNRISE AND SUNSET
MAY 25 2016...........SUNRISE   537 AM PDT   SUNSET   816 PM PDT
MAY 26 2016...........SUNRISE   537 AM PDT   SUNSET   816 PM PDT



USA.gov is the U.S. government's official web portal to all federal, state and local government web resources and services.